createdAt,value
2019-05-22T00:01:13.703Z,93.80
2019-05-22T00:03:52.883Z,93.50
2019-05-22T00:06:26.425Z,93.70
2019-05-22T00:08:55.001Z,93.90
2019-05-22T00:11:25.341Z,93.70
2019-05-22T00:13:55.405Z,93.50
2019-05-22T00:16:24.493Z,93.60
2019-05-22T00:18:53.771Z,94.30
2019-05-22T00:21:22.762Z,93.60
2019-05-22T00:23:52.504Z,93.50
2019-05-22T00:26:22.024Z,93.20
2019-05-22T00:28:51.719Z,93.50
2019-05-22T00:31:20.842Z,93.60
2019-05-22T00:33:50.405Z,94.20
2019-05-22T00:36:20.872Z,93.40
2019-05-22T00:38:50.237Z,93.50
2019-05-22T00:41:20.888Z,94.10
2019-05-22T00:43:51.548Z,93.90
2019-05-22T00:46:20.936Z,93.80
2019-05-22T00:48:51.345Z,93.80
2019-05-22T00:51:36.770Z,93.70
2019-05-22T00:54:09.727Z,93.60
2019-05-22T00:56:55.519Z,93.50
2019-05-22T00:59:42.959Z,93.70
2019-05-22T01:02:23.133Z,93.50
2019-05-22T01:04:52.290Z,93.40
2019-05-22T01:07:22.543Z,93.40
2019-05-22T01:09:52.825Z,94.00
2019-05-22T01:12:29.115Z,93.50
2019-05-22T01:15:04.570Z,93.10
2019-05-22T01:17:36.616Z,92.50
2019-05-22T01:20:07.791Z,93.00
2019-05-22T01:22:37.375Z,93.00
2019-05-22T01:25:06.854Z,92.70
2019-05-22T01:27:36.899Z,93.00
2019-05-22T01:30:08.626Z,92.50
2019-05-22T01:32:39.702Z,93.20
2019-05-22T01:35:10.189Z,93.50
2019-05-22T01:37:40.144Z,92.80
2019-05-22T01:40:24.106Z,93.30
2019-05-22T01:42:54.611Z,93.20
2019-05-22T01:45:25.340Z,93.00
2019-05-22T01:48:04.253Z,93.00
2019-05-22T01:50:41.599Z,93.30
2019-05-22T01:53:12.174Z,93.10
2019-05-22T01:55:41.778Z,92.80
2019-05-22T01:58:11.074Z,93.00
2019-05-22T02:00:41.237Z,93.40
2019-05-22T02:03:11.418Z,93.10
2019-05-22T02:05:40.637Z,93.20
2019-05-22T02:08:10.577Z,93.30
2019-05-22T02:10:44.534Z,92.90
2019-05-22T02:13:15.550Z,92.70
2019-05-22T02:15:46.602Z,92.60
2019-05-22T02:18:17.764Z,93.00
2019-05-22T02:20:46.748Z,93.00
2019-05-22T02:23:16.952Z,93.10
2019-05-22T02:25:45.539Z,92.50
2019-05-22T02:28:14.882Z,92.50
2019-05-22T02:30:44.230Z,93.40
2019-05-22T02:33:14.225Z,92.90
2019-05-22T02:35:42.885Z,93.00
2019-05-22T02:38:12.311Z,93.10
2019-05-22T02:40:43.430Z,93.20
2019-05-22T02:43:13.107Z,93.20
2019-05-22T02:45:41.768Z,92.50
2019-05-22T02:48:11.912Z,92.50
2019-05-22T02:50:41.993Z,92.50
2019-05-22T02:53:13.156Z,92.30
2019-05-22T02:55:41.688Z,92.70
2019-05-22T02:58:11.095Z,92.60
2019-05-22T03:00:57.250Z,92.70
2019-05-22T03:03:26.820Z,92.30
2019-05-22T03:05:56.340Z,92.80
2019-05-22T03:08:27.919Z,92.90
2019-05-22T03:10:56.557Z,92.70
2019-05-22T03:13:46.335Z,93.00
2019-05-22T03:16:16.585Z,93.50
2019-05-22T03:18:45.040Z,93.00
2019-05-22T03:21:13.929Z,92.90
2019-05-22T03:23:43.009Z,92.70
2019-05-22T03:26:13.625Z,92.70
2019-05-22T03:28:42.910Z,93.00
2019-05-22T03:31:12.618Z,92.80
2019-05-22T03:33:42.070Z,92.70
2019-05-22T03:36:15.028Z,92.70
2019-05-22T03:38:44.368Z,92.90
2019-05-22T03:41:13.765Z,93.40
2019-05-22T03:43:45.061Z,93.30
2019-05-22T03:46:31.657Z,93.30
2019-05-22T03:49:01.226Z,93.50
2019-05-22T03:51:31.301Z,93.40
2019-05-22T03:54:00.706Z,93.50
2019-05-22T03:56:31.275Z,93.60
2019-05-22T03:59:01.241Z,93.30
2019-05-22T04:01:31.579Z,93.00
2019-05-22T04:04:02.402Z,92.80
2019-05-22T04:06:32.899Z,92.60
2019-05-22T04:09:06.072Z,92.40
2019-05-22T04:11:38.749Z,92.70
2019-05-22T04:14:07.556Z,92.90
2019-05-22T04:16:36.110Z,92.40
2019-05-22T04:19:05.455Z,93.00
2019-05-22T04:21:34.187Z,92.50
2019-05-22T04:24:03.274Z,92.80
2019-05-22T04:26:33.373Z,92.50
2019-05-22T04:29:03.568Z,92.50
2019-05-22T04:31:52.011Z,92.70
2019-05-22T04:34:20.823Z,93.30
2019-05-22T04:36:53.896Z,92.80
2019-05-22T04:39:25.932Z,92.40
2019-05-22T04:41:55.459Z,92.40
2019-05-22T04:44:25.576Z,93.10
2019-05-22T04:46:55.462Z,93.40
2019-05-22T04:49:24.802Z,93.10
2019-05-22T04:51:53.900Z,93.30
2019-05-22T04:54:22.354Z,93.20
2019-05-22T04:56:51.524Z,93.10
2019-05-22T04:59:20.390Z,93.30
2019-05-22T05:01:49.411Z,92.70
2019-05-22T05:04:18.591Z,92.70
2019-05-22T05:06:47.131Z,92.50
2019-05-22T05:09:16.124Z,92.40
2019-05-22T05:11:44.964Z,92.80
2019-05-22T05:14:13.594Z,93.10
2019-05-22T05:16:42.106Z,92.90
2019-05-22T05:19:10.840Z,92.00
2019-05-22T05:21:39.798Z,92.60
2019-05-22T05:24:08.335Z,92.60
2019-05-22T05:26:37.529Z,92.70
2019-05-22T05:29:07.737Z,92.90
2019-05-22T05:31:36.332Z,92.60
2019-05-22T05:34:16.935Z,92.60
2019-05-22T05:36:47.026Z,92.80
2019-05-22T05:39:19.180Z,93.00
2019-05-22T05:41:48.066Z,93.30
2019-05-22T05:44:16.775Z,93.10
2019-05-22T05:46:45.528Z,92.90
2019-05-22T05:49:14.048Z,93.10
2019-05-22T05:51:42.924Z,93.10
2019-05-22T05:54:12.938Z,93.10
2019-05-22T05:56:43.315Z,92.60
2019-05-22T05:59:12.615Z,92.10
2019-05-22T06:01:44.193Z,92.30
2019-05-22T06:04:13.733Z,92.90
2019-05-22T06:06:51.901Z,92.80
2019-05-22T06:09:21.572Z,92.80
2019-05-22T06:11:53.908Z,92.70
2019-05-22T06:14:28.636Z,93.20
2019-05-22T06:17:07.759Z,92.70
2019-05-22T06:19:39.542Z,93.20
2019-05-22T06:22:09.456Z,93.50
2019-05-22T06:24:49.727Z,93.50
2019-05-22T06:27:20.350Z,93.20
2019-05-22T06:30:08.602Z,92.30
2019-05-22T06:32:57.678Z,92.40
2019-05-22T06:35:30.030Z,92.60
2019-05-22T06:38:07.784Z,92.80
2019-05-22T06:40:36.558Z,93.20
2019-05-22T06:43:27.616Z,92.70
2019-05-22T06:45:56.789Z,92.90
2019-05-22T06:48:25.547Z,92.10
2019-05-22T06:50:54.084Z,92.60
2019-05-22T06:53:22.839Z,92.70
2019-05-22T06:55:51.461Z,92.80
2019-05-22T06:58:20.082Z,93.10
2019-05-22T07:00:48.911Z,92.70
2019-05-22T07:03:17.655Z,92.30
2019-05-22T07:05:46.912Z,92.40
2019-05-22T07:08:16.574Z,92.80
2019-05-22T07:10:45.613Z,93.00
2019-05-22T07:13:15.018Z,91.80
2019-05-22T07:15:44.210Z,92.70
2019-05-22T07:18:14.636Z,92.20
2019-05-22T07:20:44.727Z,92.20
2019-05-22T07:23:15.400Z,92.50
2019-05-22T07:25:46.451Z,92.40
2019-05-22T07:28:18.167Z,92.00
2019-05-22T07:30:47.900Z,91.70
2019-05-22T07:33:18.002Z,91.40
2019-05-22T07:36:07.864Z,91.30
2019-05-22T07:38:19.316Z,91.80
2019-05-22T07:40:50.466Z,91.00
2019-05-22T07:43:20.638Z,91.60
2019-05-22T07:45:50.885Z,91.80
2019-05-22T07:48:21.215Z,92.00
2019-05-22T07:50:50.153Z,91.70
2019-05-22T07:53:18.742Z,91.00
2019-05-22T07:55:49.028Z,90.80
2019-05-22T07:58:18.477Z,91.00
2019-05-22T08:00:50.931Z,90.90
2019-05-22T08:03:20.587Z,88.70
2019-05-22T08:05:54.345Z,89.90
2019-05-22T08:08:24.896Z,88.10
2019-05-22T08:10:54.729Z,89.40
2019-05-22T08:13:24.034Z,89.80
2019-05-22T08:15:52.831Z,90.20
2019-05-22T08:18:22.767Z,88.60
2019-05-22T08:20:51.551Z,87.70
2019-05-22T08:23:21.706Z,89.30
2019-05-22T08:25:51.046Z,88.30
2019-05-22T08:28:20.815Z,88.70
2019-05-22T08:30:50.255Z,89.90
2019-05-22T08:36:49.452Z,88.40
2019-05-22T08:39:18.584Z,86.00
2019-05-22T08:41:47.530Z,85.90
2019-05-22T08:44:17.742Z,87.10
2019-05-22T08:46:46.556Z,86.70
2019-05-22T08:49:15.177Z,84.70
2019-05-22T08:51:43.846Z,85.30
2019-05-22T08:54:13.794Z,84.60
2019-05-22T08:56:46.309Z,84.90
2019-05-22T08:59:19.415Z,85.00
2019-05-22T09:01:46.733Z,84.50
2019-05-22T09:04:16.783Z,83.40
2019-05-22T09:06:45.291Z,84.10
2019-05-22T09:09:14.048Z,82.80
2019-05-22T09:11:42.536Z,81.80
2019-05-22T09:14:11.036Z,84.00
2019-05-22T09:16:39.786Z,82.70
2019-05-22T09:19:08.301Z,81.60
2019-05-22T09:21:40.573Z,82.60
2019-05-22T09:24:11.832Z,83.90
2019-05-22T09:26:41.012Z,80.40
2019-05-22T09:29:09.906Z,80.00
2019-05-22T09:31:38.704Z,81.50
2019-05-22T09:34:07.142Z,81.50
2019-05-22T09:36:36.171Z,81.80
2019-05-22T09:39:07.029Z,78.60
2019-05-22T09:41:36.209Z,79.40
2019-05-22T09:44:05.514Z,81.70
2019-05-22T09:46:34.399Z,81.60
2019-05-22T09:49:04.221Z,81.10
2019-05-22T09:51:32.728Z,81.80
2019-05-22T09:54:02.029Z,80.50
2019-05-22T09:56:31.082Z,79.90
2019-05-22T09:58:59.995Z,79.20
2019-05-22T10:01:28.447Z,75.60
2019-05-22T10:03:56.874Z,76.50
2019-05-22T10:06:25.570Z,76.50
2019-05-22T10:08:54.081Z,77.20
2019-05-22T10:11:23.481Z,77.70
2019-05-22T10:13:52.599Z,74.80
2019-05-22T10:16:21.093Z,76.00
2019-05-22T10:18:53.161Z,77.70
2019-05-22T10:21:21.428Z,76.00
2019-05-22T10:23:50.211Z,74.30
2019-05-22T10:26:19.006Z,73.10
2019-05-22T10:28:47.461Z,75.00
2019-05-22T10:31:17.837Z,76.00
2019-05-22T10:33:46.565Z,73.20
2019-05-22T10:36:15.918Z,75.20
2019-05-22T10:38:44.691Z,75.90
2019-05-22T10:41:13.276Z,74.40
2019-05-22T10:43:41.755Z,74.90
2019-05-22T10:46:11.419Z,75.50
2019-05-22T10:48:40.653Z,72.00
2019-05-22T10:51:09.897Z,73.30
2019-05-22T10:53:39.481Z,73.40
2019-05-22T10:56:08.170Z,69.80
2019-05-22T10:58:37.449Z,66.70
2019-05-22T11:01:08.119Z,67.30
2019-05-22T11:03:37.094Z,70.00
2019-05-22T11:06:07.807Z,71.80
2019-05-22T11:08:36.487Z,68.50
2019-05-22T11:11:05.055Z,69.50
2019-05-22T11:13:34.721Z,68.50
2019-05-22T11:16:04.547Z,68.20
2019-05-22T11:18:33.379Z,65.60
2019-05-22T11:21:01.961Z,67.00
2019-05-22T11:23:30.787Z,66.10
2019-05-22T11:25:59.349Z,69.10
2019-05-22T11:28:29.535Z,66.90
2019-05-22T11:30:58.669Z,65.80
2019-05-22T11:33:27.167Z,67.00
2019-05-22T11:35:55.967Z,68.80
2019-05-22T11:38:24.707Z,65.50
2019-05-22T11:40:53.814Z,65.70
2019-05-22T11:43:22.307Z,65.00
2019-05-22T11:45:51.306Z,61.50
2019-05-22T11:48:20.899Z,58.70
2019-05-22T11:50:50.509Z,59.10
2019-05-22T11:53:19.299Z,59.40
2019-05-22T11:55:47.758Z,64.80
2019-05-22T11:58:17.192Z,62.90
2019-05-22T12:00:46.482Z,62.50
2019-05-22T12:03:15.721Z,61.10
2019-05-22T12:05:45.803Z,61.00
2019-05-22T12:08:15.189Z,62.60
2019-05-22T12:10:43.895Z,66.60
2019-05-22T12:13:13.435Z,62.70
2019-05-22T12:15:42.879Z,64.70
2019-05-22T12:18:12.348Z,61.10
2019-05-22T12:20:41.102Z,63.80
2019-05-22T12:23:09.996Z,61.20
2019-05-22T12:25:39.123Z,62.80
2019-05-22T12:28:07.562Z,61.80
2019-05-22T12:30:36.426Z,59.60
2019-05-22T12:33:12.773Z,57.20
2019-05-22T12:35:37.396Z,60.70
2019-05-22T12:38:07.834Z,61.00
2019-05-22T12:40:36.920Z,61.70
2019-05-22T12:43:05.742Z,62.90
2019-05-22T12:45:34.274Z,64.30
2019-05-22T12:48:04.223Z,62.50
2019-05-22T12:50:33.765Z,65.70
2019-05-22T12:53:04.545Z,65.10
2019-05-22T12:55:33.778Z,62.60
2019-05-22T12:58:02.763Z,64.20
2019-05-22T13:00:31.360Z,63.60
2019-05-22T13:03:02.017Z,65.10
2019-05-22T13:05:31.255Z,64.10
2019-05-22T13:08:00.070Z,62.60
2019-05-22T13:10:29.294Z,62.70
2019-05-22T13:12:57.889Z,60.00
2019-05-22T13:15:26.462Z,62.30
2019-05-22T13:17:55.824Z,63.80
2019-05-22T13:20:41.742Z,66.60
2019-05-22T13:22:58.582Z,65.90
2019-05-22T13:25:29.949Z,66.30
2019-05-22T13:28:01.327Z,69.40
2019-05-22T13:30:31.398Z,67.50
2019-05-22T13:33:00.274Z,68.40
2019-05-22T13:35:29.437Z,64.60
2019-05-22T13:37:59.086Z,64.10
2019-05-22T13:40:28.982Z,62.90
2019-05-22T13:42:58.728Z,70.70
2019-05-22T13:45:30.132Z,63.20
2019-05-22T13:47:58.628Z,70.30
2019-05-22T13:50:28.976Z,62.70
2019-05-22T13:53:00.790Z,64.20
2019-05-22T13:55:30.579Z,64.70
2019-05-22T13:58:01.386Z,64.50
2019-05-22T14:00:32.035Z,59.60
2019-05-22T14:03:00.745Z,57.60
2019-05-22T14:05:31.087Z,58.30
2019-05-22T14:08:00.491Z,53.40
2019-05-22T14:10:29.376Z,53.50
2019-05-22T14:12:58.555Z,58.30
2019-05-22T14:15:47.404Z,56.90
2019-05-22T14:17:58.561Z,56.50
2019-05-22T14:20:27.137Z,56.10
2019-05-22T14:22:55.952Z,55.40
2019-05-22T14:25:26.413Z,54.40
2019-05-22T14:27:55.280Z,56.20
2019-05-22T14:30:25.846Z,55.90
2019-05-22T14:32:55.203Z,58.80
2019-05-22T14:35:25.665Z,57.80
2019-05-22T14:37:54.942Z,59.30
2019-05-22T14:40:24.909Z,57.70
2019-05-22T14:42:53.983Z,56.90
2019-05-22T14:45:24.884Z,56.80
2019-05-22T14:47:54.408Z,57.60
2019-05-22T14:50:25.110Z,56.90
2019-05-22T14:52:53.854Z,59.80
2019-05-22T14:55:22.429Z,58.30
2019-05-22T14:57:51.116Z,61.70
2019-05-22T15:00:22.700Z,61.00
2019-05-22T15:02:55.475Z,63.40
2019-05-22T15:05:21.698Z,60.60
2019-05-22T15:07:50.649Z,62.00
2019-05-22T15:10:21.441Z,61.00
2019-05-22T15:12:50.733Z,63.50
2019-05-22T15:15:21.274Z,65.30
2019-05-22T15:17:49.985Z,62.30
2019-05-22T15:20:23.812Z,63.10
2019-05-22T15:22:56.048Z,64.90
2019-05-22T15:25:23.733Z,64.80
2019-05-22T15:27:52.939Z,61.70
2019-05-22T15:30:22.224Z,61.90
2019-05-22T15:32:50.687Z,63.30
2019-05-22T15:35:20.271Z,60.10
2019-05-22T15:37:49.134Z,60.50
2019-05-22T15:40:19.354Z,58.50
2019-05-22T15:42:48.166Z,58.70
2019-05-22T15:45:25.717Z,57.60
2019-05-22T15:47:57.603Z,62.60
2019-05-22T15:50:31.886Z,59.20
2019-05-22T15:53:09.461Z,59.00
2019-05-22T15:55:39.443Z,59.20
2019-05-22T15:58:08.731Z,58.70
2019-05-22T16:00:40.308Z,59.20
2019-05-22T16:03:15.608Z,61.30
2019-05-22T16:05:45.605Z,62.90
2019-05-22T16:08:15.518Z,65.70
2019-05-22T16:10:47.328Z,66.80
2019-05-22T16:13:20.062Z,69.20
2019-05-22T16:15:51.817Z,68.20
2019-05-22T16:18:24.419Z,69.90
2019-05-22T16:20:54.755Z,70.80
2019-05-22T16:23:24.217Z,71.20
2019-05-22T16:25:54.170Z,71.70
2019-05-22T16:28:23.673Z,73.70
2019-05-22T16:30:53.410Z,73.20
2019-05-22T16:33:23.720Z,74.00
2019-05-22T16:35:52.613Z,72.80
2019-05-22T16:38:23.322Z,72.40
2019-05-22T16:40:52.771Z,73.20
2019-05-22T16:43:21.578Z,72.30
2019-05-22T16:45:51.389Z,71.60
2019-05-22T16:48:28.956Z,71.50
2019-05-22T16:50:52.825Z,72.00
2019-05-22T16:53:23.734Z,73.50
2019-05-22T16:55:52.918Z,70.60
2019-05-22T16:58:21.904Z,70.80
2019-05-22T17:00:51.223Z,70.50
2019-05-22T17:03:20.548Z,71.60
2019-05-22T17:05:49.135Z,71.00
2019-05-22T17:08:18.378Z,71.80
2019-05-22T17:10:48.717Z,71.20
2019-05-22T17:13:17.292Z,72.40
2019-05-22T17:15:46.245Z,74.10
2019-05-22T17:18:17.213Z,76.30
2019-05-22T17:20:47.483Z,74.90
2019-05-22T17:23:16.303Z,76.00
2019-05-22T17:25:45.465Z,75.30
2019-05-22T17:28:16.489Z,74.80
2019-05-22T17:30:46.397Z,77.10
2019-05-22T17:33:15.609Z,77.20
2019-05-22T17:35:44.881Z,78.00
2019-05-22T17:38:14.871Z,77.80
2019-05-22T17:40:43.917Z,77.90
2019-05-22T17:43:14.594Z,78.10
2019-05-22T17:45:45.084Z,77.00
2019-05-22T17:48:15.632Z,76.80
2019-05-22T17:50:44.557Z,77.50
2019-05-22T17:53:13.806Z,78.00
2019-05-22T17:55:43.369Z,77.80
2019-05-22T17:58:12.621Z,78.80
2019-05-22T18:00:49.297Z,80.00
2019-05-22T18:03:18.206Z,79.30
2019-05-22T18:05:47.820Z,79.10
2019-05-22T18:08:16.832Z,79.50
2019-05-22T18:10:48.504Z,79.20
2019-05-22T18:13:17.282Z,79.20
2019-05-22T18:15:46.811Z,79.60
2019-05-22T18:18:15.689Z,80.60
2019-05-22T18:20:44.474Z,80.60
2019-05-22T18:23:14.404Z,82.00
2019-05-22T18:25:44.691Z,81.60
2019-05-22T18:28:13.707Z,81.70
2019-05-22T18:30:42.725Z,81.60
2019-05-22T18:33:12.411Z,82.10
2019-05-22T18:35:41.001Z,82.10
2019-05-22T18:38:09.873Z,82.60
2019-05-22T18:40:38.461Z,82.50
2019-05-22T18:43:07.258Z,83.50
2019-05-22T18:45:37.454Z,83.80
2019-05-22T18:48:06.379Z,84.00
2019-05-22T18:50:36.123Z,83.40
2019-05-22T18:53:05.366Z,83.70
2019-05-22T18:55:33.825Z,84.60
2019-05-22T18:58:02.884Z,86.30
2019-05-22T19:00:33.027Z,85.70
2019-05-22T19:03:01.805Z,86.00
2019-05-22T19:05:31.976Z,86.30
2019-05-22T19:08:00.479Z,86.00
2019-05-22T19:10:29.125Z,86.70
2019-05-22T19:12:58.271Z,87.20
2019-05-22T19:15:26.845Z,86.50
2019-05-22T19:17:55.293Z,86.50
2019-05-22T19:20:24.270Z,86.40
2019-05-22T19:23:00.558Z,86.40
2019-05-22T19:25:23.850Z,86.30
2019-05-22T19:27:52.447Z,86.00
2019-05-22T19:30:23.274Z,86.50
2019-05-22T19:32:51.703Z,86.80
2019-05-22T19:35:20.856Z,87.00
2019-05-22T19:37:50.346Z,86.60
2019-05-22T19:40:19.770Z,86.60
2019-05-22T19:42:48.214Z,86.40
2019-05-22T19:45:17.683Z,86.90
2019-05-22T19:47:51.061Z,87.50
2019-05-22T19:50:23.203Z,85.60
2019-05-22T19:52:52.719Z,87.10
2019-05-22T19:55:21.791Z,86.30
2019-05-22T19:57:51.252Z,87.80
2019-05-22T20:00:21.014Z,88.50
2019-05-22T20:02:50.838Z,88.90
2019-05-22T20:05:22.741Z,89.10
2019-05-22T20:07:52.193Z,88.70
2019-05-22T20:10:21.592Z,88.90
2019-05-22T20:12:50.722Z,89.20
2019-05-22T20:15:19.875Z,88.60
2019-05-22T20:17:48.485Z,88.40
2019-05-22T20:20:19.745Z,88.10
2019-05-22T20:22:49.940Z,87.30
2019-05-22T20:25:19.654Z,87.00
2019-05-22T20:27:48.237Z,86.80
2019-05-22T20:30:20.231Z,86.90
2019-05-22T20:32:48.804Z,86.50
2019-05-22T20:35:17.669Z,86.50
2019-05-22T20:37:47.854Z,86.50
2019-05-22T20:40:19.315Z,86.60
2019-05-22T20:42:47.917Z,86.30
2019-05-22T20:45:19.332Z,86.70
2019-05-22T20:47:49.415Z,86.40
2019-05-22T20:50:20.009Z,86.10
2019-05-22T20:52:49.689Z,86.70
2019-05-22T20:55:19.260Z,86.30
2019-05-22T20:57:48.470Z,86.70
2019-05-22T21:00:18.308Z,87.30
2019-05-22T21:02:48.804Z,87.80
2019-05-22T21:05:20.558Z,87.60
2019-05-22T21:07:52.101Z,88.40
2019-05-22T21:10:23.249Z,87.70
2019-05-22T21:12:53.320Z,86.90
2019-05-22T21:15:21.827Z,87.80
2019-05-22T21:17:52.862Z,88.10
2019-05-22T21:20:23.076Z,88.50
2019-05-22T21:22:52.067Z,88.60
2019-05-22T21:25:20.673Z,88.20
2019-05-22T21:27:50.047Z,87.50
2019-05-22T21:30:19.617Z,87.90
2019-05-22T21:32:49.060Z,88.90
2019-05-22T21:35:19.518Z,88.90
2019-05-22T21:37:48.042Z,88.90
2019-05-22T21:40:20.178Z,89.70
2019-05-22T21:42:51.222Z,90.00
2019-05-22T21:45:20.387Z,90.00
2019-05-22T21:47:49.208Z,89.50
2019-05-22T21:50:19.245Z,88.90
2019-05-22T21:52:47.842Z,90.50
2019-05-22T21:55:17.684Z,90.00
2019-05-22T21:57:46.878Z,89.40
2019-05-22T22:00:34.629Z,88.90
2019-05-22T22:03:04.130Z,90.50
2019-05-22T22:05:33.360Z,90.20
2019-05-22T22:08:03.581Z,90.20
2019-05-22T22:10:32.869Z,90.20
2019-05-22T22:13:02.637Z,90.20
2019-05-22T22:15:32.108Z,89.40
2019-05-22T22:18:01.589Z,88.40
2019-05-22T22:20:30.375Z,87.90
2019-05-22T22:22:59.454Z,88.40
2019-05-22T22:25:28.870Z,86.60
2019-05-22T22:27:58.401Z,88.80
2019-05-22T22:30:31.864Z,87.80
2019-05-22T22:33:03.439Z,88.60
2019-05-22T22:35:32.351Z,90.00
2019-05-22T22:38:01.256Z,88.80
2019-05-22T22:40:29.799Z,88.80
2019-05-22T22:42:59.946Z,88.80
2019-05-22T22:45:48.233Z,89.20
2019-05-22T22:48:32.267Z,89.50
2019-05-22T22:51:03.970Z,89.80
2019-05-22T22:53:32.541Z,89.70
2019-05-22T22:56:01.850Z,87.80
2019-05-22T22:58:30.752Z,89.50
2019-05-22T23:01:00.226Z,88.10
2019-05-22T23:03:30.382Z,85.80
2019-05-22T23:05:59.378Z,84.20
2019-05-22T23:08:32.990Z,84.60
2019-05-22T23:11:01.852Z,86.10
2019-05-22T23:13:30.768Z,85.30
2019-05-22T23:16:00.269Z,84.90
2019-05-22T23:18:45.288Z,87.10
2019-05-22T23:21:16.907Z,86.90
2019-05-22T23:23:44.557Z,89.80
2019-05-22T23:26:14.246Z,89.90
2019-05-22T23:28:42.686Z,88.80
2019-05-22T23:31:12.848Z,90.00
2019-05-22T23:33:42.925Z,89.90
2019-05-22T23:36:14.139Z,89.90
2019-05-22T23:38:43.330Z,88.50
2019-05-22T23:41:13.776Z,88.90
2019-05-22T23:43:44.648Z,87.90
2019-05-22T23:46:14.783Z,89.50
2019-05-22T23:48:44.185Z,90.60
2019-05-22T23:51:12.756Z,89.90
2019-05-22T23:53:42.731Z,88.00
2019-05-22T23:56:11.886Z,89.80
2019-05-22T23:58:52.285Z,89.50
